createdAt,value
2022-10-18T00:02:35.677Z,100.00
2022-10-18T00:05:20.634Z,100.00
2022-10-18T00:08:05.667Z,100.00
2022-10-18T00:10:50.955Z,100.00
2022-10-18T00:13:36.273Z,100.00
2022-10-18T00:16:21.232Z,100.00
2022-10-18T00:19:06.260Z,100.00
2022-10-18T00:21:51.113Z,100.00
2022-10-18T00:24:36.051Z,100.00
2022-10-18T00:27:21.062Z,100.00
2022-10-18T00:30:06.495Z,100.00
2022-10-18T00:32:51.707Z,100.00
2022-10-18T00:35:36.622Z,100.00
2022-10-18T00:38:21.597Z,100.00
2022-10-18T00:41:09.191Z,100.00
2022-10-18T00:44:05.202Z,100.00
2022-10-18T00:46:52.285Z,100.00
2022-10-18T00:49:41.803Z,100.00
2022-10-18T00:52:41.731Z,100.00
2022-10-18T00:55:27.890Z,100.00
2022-10-18T00:58:15.847Z,100.00
2022-10-18T01:01:00.624Z,100.00
2022-10-18T01:03:45.498Z,100.00
2022-10-18T01:06:32.058Z,100.00
2022-10-18T01:09:45.383Z,100.00
2022-10-18T01:13:02.420Z,100.00
2022-10-18T01:18:45.964Z,100.00
2022-10-18T01:21:47.752Z,100.00
2022-10-18T01:24:49.101Z,100.00
2022-10-18T01:27:56.612Z,100.00
2022-10-18T01:30:53.431Z,100.00
2022-10-18T01:33:45.409Z,100.00
2022-10-18T01:36:32.568Z,100.00
2022-10-18T01:39:26.062Z,100.00
2022-10-18T01:42:13.331Z,100.00
2022-10-18T01:45:00.792Z,100.00
2022-10-18T01:47:47.776Z,100.00
2022-10-18T01:50:34.721Z,100.00
2022-10-18T01:53:32.250Z,100.00
2022-10-18T01:56:46.479Z,100.00
2022-10-18T01:59:31.218Z,100.00
2022-10-18T02:02:47.380Z,100.00
2022-10-18T02:05:39.963Z,100.00
2022-10-18T02:09:07.971Z,100.00
2022-10-18T02:11:54.514Z,100.00
2022-10-18T02:14:42.320Z,100.00
2022-10-18T02:17:29.626Z,100.00
2022-10-18T02:20:19.965Z,100.00
2022-10-18T02:23:10.188Z,100.00
2022-10-18T02:25:55.614Z,100.00
2022-10-18T02:28:41.074Z,100.00
2022-10-18T02:31:28.938Z,100.00
2022-10-18T02:34:25.146Z,100.00
2022-10-18T02:37:10.845Z,100.00
2022-10-18T02:39:56.480Z,100.00
2022-10-18T02:42:48.926Z,100.00
2022-10-18T02:45:33.913Z,100.00
2022-10-18T02:48:18.554Z,100.00
2022-10-18T02:51:03.465Z,100.00
2022-10-18T02:53:48.359Z,100.00
2022-10-18T02:56:33.913Z,100.00
2022-10-18T02:59:18.884Z,100.00
2022-10-18T03:02:04.035Z,100.00
2022-10-18T03:04:48.882Z,100.00
2022-10-18T03:07:34.192Z,100.00
2022-10-18T03:10:19.370Z,100.00
2022-10-18T03:13:04.533Z,100.00
2022-10-18T03:15:49.507Z,100.00
2022-10-18T03:18:34.719Z,100.00
2022-10-18T03:21:19.698Z,100.00
2022-10-18T03:24:05.146Z,100.00
2022-10-18T03:26:50.142Z,100.00
2022-10-18T03:29:34.960Z,100.00
2022-10-18T03:32:19.854Z,100.00
2022-10-18T03:35:05.659Z,100.00
2022-10-18T03:37:50.652Z,100.00
2022-10-18T03:40:35.699Z,100.00
2022-10-18T03:43:20.717Z,100.00
2022-10-18T03:46:05.647Z,100.00
2022-10-18T03:48:50.475Z,100.00
2022-10-18T03:51:35.500Z,100.00
2022-10-18T03:54:20.354Z,100.00
2022-10-18T03:57:05.244Z,100.00
2022-10-18T03:59:50.223Z,100.00
2022-10-18T04:02:35.234Z,100.00
2022-10-18T04:05:20.341Z,100.00
2022-10-18T04:08:05.413Z,100.00
2022-10-18T04:10:51.953Z,100.00
2022-10-18T04:13:36.932Z,100.00
2022-10-18T04:16:22.370Z,100.00
2022-10-18T04:19:07.408Z,100.00
2022-10-18T04:21:52.279Z,100.00
2022-10-18T04:24:38.548Z,100.00
2022-10-18T04:27:23.628Z,100.00
2022-10-18T04:30:08.986Z,100.00
2022-10-18T04:32:53.623Z,100.00
2022-10-18T04:35:38.477Z,100.00
2022-10-18T04:38:23.893Z,100.00
2022-10-18T04:41:08.627Z,100.00
2022-10-18T04:43:53.612Z,100.00
2022-10-18T04:46:38.535Z,100.00
2022-10-18T04:49:23.520Z,100.00
2022-10-18T04:52:08.801Z,100.00
2022-10-18T04:54:53.996Z,100.00
2022-10-18T04:57:38.982Z,100.00
2022-10-18T05:00:23.860Z,100.00
2022-10-18T05:03:10.801Z,100.00
2022-10-18T05:06:03.605Z,100.00
2022-10-18T05:08:49.137Z,100.00
2022-10-18T05:11:34.399Z,100.00
2022-10-18T05:14:19.429Z,100.00
2022-10-18T05:17:04.572Z,100.00
2022-10-18T05:19:49.422Z,100.00
2022-10-18T05:22:34.358Z,100.00
2022-10-18T05:25:19.704Z,100.00
2022-10-18T05:28:10.939Z,100.00
2022-10-18T05:31:07.904Z,100.00
2022-10-18T05:33:52.612Z,100.00
2022-10-18T05:36:37.738Z,100.00
2022-10-18T05:39:22.622Z,100.00
2022-10-18T05:42:08.966Z,100.00
2022-10-18T05:44:55.132Z,100.00
2022-10-18T05:47:40.621Z,100.00
2022-10-18T05:50:28.177Z,100.00
2022-10-18T05:53:35.257Z,100.00
2022-10-18T05:56:19.465Z,100.00
2022-10-18T05:59:07.385Z,100.00
2022-10-18T06:01:52.213Z,100.00
2022-10-18T06:04:37.356Z,100.00
2022-10-18T06:07:22.689Z,100.00
2022-10-18T06:10:08.147Z,100.00
2022-10-18T06:12:53.204Z,100.00
2022-10-18T06:15:38.235Z,100.00
2022-10-18T06:18:23.459Z,100.00
2022-10-18T06:21:12.107Z,100.00
2022-10-18T06:23:58.966Z,100.00
2022-10-18T06:26:44.421Z,100.00
2022-10-18T06:29:29.714Z,100.00
2022-10-18T06:32:41.560Z,100.00
2022-10-18T06:35:26.840Z,100.00
2022-10-18T06:38:13.412Z,100.00
2022-10-18T06:40:59.860Z,100.00
2022-10-18T06:43:53.494Z,100.00
2022-10-18T06:46:39.761Z,100.00
2022-10-18T06:49:24.650Z,100.00
2022-10-18T06:52:09.865Z,100.00
2022-10-18T06:54:54.607Z,100.00
2022-10-18T06:57:39.545Z,100.00
2022-10-18T07:00:24.475Z,100.00
2022-10-18T07:03:09.465Z,100.00
2022-10-18T07:05:54.473Z,100.00
2022-10-18T07:08:40.595Z,100.00
2022-10-18T07:11:27.186Z,100.00
2022-10-18T07:14:16.181Z,100.00
2022-10-18T07:17:01.648Z,100.00
2022-10-18T07:19:46.822Z,100.00
2022-10-18T07:22:31.765Z,100.00
2022-10-18T07:25:17.196Z,100.00
2022-10-18T07:28:02.833Z,98.09
2022-10-18T07:30:52.989Z,96.36
2022-10-18T07:33:48.879Z,94.15
2022-10-18T07:36:36.363Z,95.60
2022-10-18T07:39:24.779Z,94.50
2022-10-18T07:42:09.852Z,91.62
2022-10-18T07:45:01.592Z,90.29
2022-10-18T07:47:54.759Z,87.42
2022-10-18T07:50:40.030Z,88.48
2022-10-18T07:53:25.712Z,86.69
2022-10-18T07:56:21.570Z,86.72
2022-10-18T07:59:12.708Z,84.09
2022-10-18T08:02:05.314Z,82.57
2022-10-18T08:04:53.014Z,80.09
2022-10-18T08:07:39.421Z,81.13
2022-10-18T08:10:30.678Z,79.38
2022-10-18T08:13:17.421Z,79.35
2022-10-18T08:16:49.654Z,78.27
2022-10-18T08:19:34.799Z,77.56
2022-10-18T08:22:22.347Z,77.73
2022-10-18T08:25:07.855Z,74.81
2022-10-18T08:27:52.819Z,75.24
2022-10-18T08:30:37.749Z,73.14
2022-10-18T08:33:23.329Z,73.25
2022-10-18T08:36:12.754Z,73.51
2022-10-18T08:38:59.612Z,71.38
2022-10-18T08:42:09.485Z,69.02
2022-10-18T08:48:46.494Z,64.88
2022-10-18T08:51:48.223Z,66.77
2022-10-18T08:55:02.551Z,64.22
2022-10-18T08:57:50.298Z,64.60
2022-10-18T09:00:40.284Z,63.87
2022-10-18T09:03:52.852Z,64.49
2022-10-18T09:06:58.597Z,65.39
2022-10-18T09:10:22.012Z,66.59
2022-10-18T09:13:29.504Z,68.41
2022-10-18T09:16:25.347Z,69.74
2022-10-18T09:19:40.317Z,70.02
2022-10-18T09:22:52.053Z,67.45
2022-10-18T09:26:06.938Z,66.44
2022-10-18T09:29:10.480Z,65.45
2022-10-18T09:32:09.010Z,65.38
2022-10-18T09:35:00.893Z,64.89
2022-10-18T09:37:47.384Z,62.13
2022-10-18T09:40:38.433Z,61.31
2022-10-18T09:43:38.324Z,62.11
2022-10-18T09:46:38.848Z,61.73
2022-10-18T09:49:49.491Z,61.35
2022-10-18T09:53:03.039Z,63.53
2022-10-18T09:56:18.617Z,61.87
2022-10-18T10:03:18.029Z,58.57
2022-10-18T10:06:17.349Z,58.69
2022-10-18T10:09:14.145Z,54.62
2022-10-18T10:11:59.468Z,54.55
2022-10-18T10:14:44.517Z,54.36
2022-10-18T10:17:32.986Z,55.39
2022-10-18T10:20:31.175Z,52.48
2022-10-18T10:26:30.491Z,53.43
2022-10-18T10:29:50.941Z,54.34
2022-10-18T10:32:51.438Z,55.38
2022-10-18T10:35:56.109Z,54.01
2022-10-18T10:38:41.047Z,54.08
2022-10-18T10:41:27.101Z,51.03
2022-10-18T10:44:20.089Z,51.15
2022-10-18T10:47:05.745Z,52.09
2022-10-18T10:50:27.565Z,53.52
2022-10-18T10:53:27.206Z,53.33
2022-10-18T10:56:22.092Z,54.11
2022-10-18T10:59:15.767Z,54.91
2022-10-18T11:02:17.149Z,54.63
2022-10-18T11:05:25.261Z,52.49
2022-10-18T11:08:16.922Z,52.86
2022-10-18T11:11:13.158Z,51.51
2022-10-18T11:14:31.577Z,51.98
2022-10-18T11:17:25.304Z,53.06
2022-10-18T11:20:19.137Z,52.66
2022-10-18T11:23:12.285Z,54.36
2022-10-18T11:26:12.693Z,51.94
2022-10-18T11:29:05.150Z,51.79
2022-10-18T11:32:02.171Z,50.78
2022-10-18T11:35:12.911Z,50.55
2022-10-18T11:38:15.164Z,51.43
2022-10-18T11:41:26.379Z,52.30
2022-10-18T11:44:29.884Z,49.90
2022-10-18T11:47:40.140Z,48.51
2022-10-18T11:50:47.662Z,49.39
2022-10-18T11:53:52.020Z,50.25
2022-10-18T11:56:59.022Z,50.62
2022-10-18T12:00:11.497Z,51.83
2022-10-18T12:02:59.699Z,51.42
2022-10-18T12:05:48.022Z,51.27
2022-10-18T12:08:41.263Z,52.77
2022-10-18T12:11:32.101Z,52.89
2022-10-18T12:14:34.611Z,52.54
2022-10-18T12:17:46.357Z,52.03
2022-10-18T12:20:48.243Z,51.97
2022-10-18T12:23:50.652Z,51.90
2022-10-18T12:26:35.975Z,52.11
2022-10-18T12:29:23.864Z,53.64
2022-10-18T12:32:14.011Z,51.98
2022-10-18T12:35:12.432Z,54.12
2022-10-18T12:38:11.574Z,54.42
2022-10-18T12:40:59.321Z,55.06
2022-10-18T12:43:51.609Z,54.29
2022-10-18T12:46:50.621Z,53.82
2022-10-18T12:49:40.175Z,52.35
2022-10-18T12:52:31.572Z,52.48
2022-10-18T12:55:19.226Z,55.14
2022-10-18T12:58:28.137Z,55.31
2022-10-18T13:01:13.143Z,57.53
2022-10-18T13:03:58.579Z,58.53
2022-10-18T13:07:04.538Z,58.17
2022-10-18T13:10:13.301Z,58.33
2022-10-18T13:13:39.278Z,58.36
2022-10-18T13:16:50.123Z,59.22
2022-10-18T13:20:02.843Z,59.22
2022-10-18T13:23:23.793Z,59.44
2022-10-18T13:26:23.209Z,61.38
2022-10-18T13:29:29.534Z,60.14
2022-10-18T13:32:23.448Z,59.42
2022-10-18T13:35:46.283Z,61.42
2022-10-18T13:38:39.795Z,61.74
2022-10-18T13:41:45.022Z,61.98
2022-10-18T13:44:39.909Z,62.44
2022-10-18T13:47:36.164Z,62.18
2022-10-18T13:50:35.751Z,64.08
2022-10-18T13:53:36.651Z,66.07
2022-10-18T13:56:38.540Z,68.45
2022-10-18T13:59:33.182Z,72.04
2022-10-18T14:02:59.946Z,77.37
2022-10-18T14:06:02.280Z,80.80
2022-10-18T14:09:01.175Z,81.17
2022-10-18T14:12:02.663Z,82.63
2022-10-18T14:15:20.068Z,84.22
2022-10-18T14:18:13.068Z,86.73
2022-10-18T14:21:14.604Z,89.03
2022-10-18T14:24:00.538Z,91.97
2022-10-18T14:26:45.377Z,93.59
2022-10-18T14:29:30.256Z,94.97
2022-10-18T14:32:31.014Z,97.21
2022-10-18T14:35:33.727Z,99.20
2022-10-18T14:38:22.442Z,100.00
2022-10-18T14:41:17.579Z,100.00
2022-10-18T14:44:29.891Z,100.00
2022-10-18T14:47:26.800Z,100.00
2022-10-18T14:50:23.886Z,100.00
2022-10-18T14:53:15.796Z,100.00
2022-10-18T14:56:03.610Z,100.00
2022-10-18T14:58:48.553Z,100.00
2022-10-18T15:01:35.710Z,100.00
2022-10-18T15:04:26.330Z,100.00
2022-10-18T15:07:17.134Z,100.00
2022-10-18T15:10:04.849Z,100.00
2022-10-18T15:13:08.651Z,100.00
2022-10-18T15:15:55.452Z,100.00
2022-10-18T15:18:41.138Z,100.00
2022-10-18T15:21:28.466Z,100.00
2022-10-18T15:24:25.604Z,100.00
2022-10-18T15:27:20.143Z,100.00
2022-10-18T15:30:16.353Z,100.00
2022-10-18T15:33:03.702Z,100.00
2022-10-18T15:35:48.964Z,100.00
2022-10-18T15:38:36.119Z,100.00
2022-10-18T15:41:38.379Z,100.00
2022-10-18T15:44:34.209Z,100.00
2022-10-18T15:47:21.127Z,100.00
2022-10-18T15:50:37.335Z,100.00
2022-10-18T15:53:23.115Z,100.00
2022-10-18T15:56:33.994Z,100.00
2022-10-18T15:59:30.203Z,100.00
2022-10-18T16:02:15.675Z,100.00
2022-10-18T16:05:02.256Z,100.00
2022-10-18T16:07:54.110Z,100.00
2022-10-18T16:10:40.497Z,100.00
2022-10-18T16:13:26.764Z,100.00
2022-10-18T16:16:21.482Z,100.00
2022-10-18T16:19:13.850Z,100.00
2022-10-18T16:22:06.121Z,100.00
2022-10-18T16:24:52.208Z,100.00
2022-10-18T16:27:37.198Z,100.00
2022-10-18T16:30:27.837Z,100.00
2022-10-18T16:33:14.155Z,100.00
2022-10-18T16:36:04.016Z,100.00
2022-10-18T16:38:49.864Z,100.00
2022-10-18T16:41:35.066Z,100.00
2022-10-18T16:44:20.163Z,100.00
2022-10-18T16:47:04.867Z,100.00
2022-10-18T16:49:52.635Z,100.00
2022-10-18T16:52:37.782Z,100.00
2022-10-18T16:55:24.415Z,100.00
2022-10-18T16:58:18.552Z,100.00
2022-10-18T17:01:06.767Z,100.00
2022-10-18T17:03:54.751Z,100.00
2022-10-18T17:06:39.543Z,100.00
2022-10-18T17:09:24.623Z,100.00
2022-10-18T17:12:09.399Z,100.00
2022-10-18T17:14:54.453Z,100.00
2022-10-18T17:17:39.555Z,100.00
2022-10-18T17:20:25.873Z,100.00
2022-10-18T17:23:11.550Z,100.00
2022-10-18T17:26:06.861Z,100.00
2022-10-18T17:28:56.504Z,100.00
2022-10-18T17:31:41.648Z,100.00
2022-10-18T17:34:26.309Z,100.00
2022-10-18T17:37:11.173Z,100.00
2022-10-18T17:39:56.243Z,100.00
2022-10-18T17:42:41.150Z,100.00
2022-10-18T17:45:26.573Z,100.00
2022-10-18T17:48:11.447Z,100.00
2022-10-18T17:50:56.513Z,100.00
2022-10-18T17:53:41.499Z,100.00
2022-10-18T17:56:30.530Z,100.00
2022-10-18T17:59:15.272Z,100.00
2022-10-18T18:02:00.431Z,100.00
2022-10-18T18:04:45.372Z,100.00
2022-10-18T18:07:30.619Z,100.00
2022-10-18T18:10:15.660Z,100.00
2022-10-18T18:13:01.428Z,100.00
2022-10-18T18:15:45.911Z,100.00
2022-10-18T18:18:31.024Z,100.00
2022-10-18T18:21:16.552Z,100.00
2022-10-18T18:24:01.945Z,100.00
2022-10-18T18:26:46.642Z,100.00
2022-10-18T18:29:31.698Z,100.00
2022-10-18T18:32:16.649Z,100.00
2022-10-18T18:35:01.524Z,100.00
2022-10-18T18:37:50.477Z,100.00
2022-10-18T18:40:35.365Z,100.00
2022-10-18T18:43:23.683Z,100.00
2022-10-18T18:46:09.584Z,100.00
2022-10-18T18:48:57.143Z,100.00
2022-10-18T18:51:42.070Z,100.00
2022-10-18T18:54:29.023Z,100.00
2022-10-18T18:57:14.057Z,100.00
2022-10-18T18:59:58.966Z,100.00
2022-10-18T19:02:44.092Z,100.00
2022-10-18T19:05:29.069Z,100.00
2022-10-18T19:08:13.988Z,100.00
2022-10-18T19:10:59.195Z,100.00
2022-10-18T19:13:44.821Z,100.00
2022-10-18T19:16:35.348Z,100.00
2022-10-18T19:19:23.236Z,100.00
2022-10-18T19:22:09.664Z,100.00
2022-10-18T19:24:54.591Z,100.00
2022-10-18T19:27:39.132Z,100.00
2022-10-18T19:30:24.201Z,100.00
2022-10-18T19:33:10.361Z,100.00
2022-10-18T19:35:55.332Z,100.00
2022-10-18T19:38:40.252Z,100.00
2022-10-18T19:44:16.845Z,100.00
2022-10-18T19:47:03.592Z,100.00
2022-10-18T19:49:48.691Z,100.00
2022-10-18T19:52:33.716Z,100.00
2022-10-18T19:55:19.124Z,100.00
2022-10-18T19:58:04.096Z,100.00
2022-10-18T20:00:53.884Z,100.00
2022-10-18T20:03:38.772Z,100.00
2022-10-18T20:06:23.838Z,100.00
2022-10-18T20:09:13.475Z,100.00
2022-10-18T20:12:01.380Z,100.00
2022-10-18T20:14:46.293Z,100.00
2022-10-18T20:17:32.082Z,100.00
2022-10-18T20:20:16.839Z,100.00
2022-10-18T20:23:01.754Z,100.00
2022-10-18T20:26:00.035Z,100.00
2022-10-18T20:28:45.988Z,100.00
2022-10-18T20:31:35.015Z,100.00
2022-10-18T20:34:25.066Z,100.00
2022-10-18T20:37:10.120Z,100.00
2022-10-18T20:39:55.189Z,100.00
2022-10-18T20:42:40.504Z,100.00
2022-10-18T20:45:25.557Z,100.00
2022-10-18T20:48:10.617Z,100.00
2022-10-18T20:50:55.402Z,100.00
2022-10-18T20:53:40.688Z,100.00
2022-10-18T20:56:30.894Z,100.00
2022-10-18T20:59:16.501Z,100.00
2022-10-18T21:02:01.211Z,100.00
2022-10-18T21:04:46.137Z,100.00
2022-10-18T21:07:31.324Z,100.00
2022-10-18T21:10:16.686Z,100.00
2022-10-18T21:13:01.599Z,100.00
2022-10-18T21:15:54.325Z,100.00
2022-10-18T21:18:39.862Z,100.00
2022-10-18T21:21:24.895Z,100.00
2022-10-18T21:24:11.380Z,100.00
2022-10-18T21:26:56.705Z,100.00
2022-10-18T21:29:41.414Z,100.00
2022-10-18T21:32:26.551Z,100.00
2022-10-18T21:35:11.507Z,100.00
2022-10-18T21:37:56.392Z,100.00
2022-10-18T21:40:44.020Z,100.00
2022-10-18T21:43:28.700Z,100.00
2022-10-18T21:46:16.303Z,100.00
2022-10-18T21:49:01.141Z,100.00
2022-10-18T21:51:46.156Z,100.00
2022-10-18T21:54:31.073Z,100.00
2022-10-18T21:57:15.869Z,100.00
2022-10-18T22:00:01.225Z,100.00
2022-10-18T22:02:45.812Z,100.00
2022-10-18T22:05:31.084Z,100.00
2022-10-18T22:08:15.770Z,100.00
2022-10-18T22:11:01.278Z,100.00
2022-10-18T22:13:46.321Z,100.00
2022-10-18T22:16:31.499Z,100.00
2022-10-18T22:19:16.334Z,100.00
2022-10-18T22:22:01.312Z,100.00
2022-10-18T22:24:47.683Z,100.00
2022-10-18T22:27:32.771Z,100.00
2022-10-18T22:30:17.864Z,100.00
2022-10-18T22:33:02.963Z,100.00
2022-10-18T22:35:51.060Z,100.00
2022-10-18T22:38:37.163Z,100.00
2022-10-18T22:41:21.893Z,100.00
2022-10-18T22:44:07.813Z,100.00
2022-10-18T22:46:53.089Z,100.00
2022-10-18T22:49:37.970Z,100.00
2022-10-18T22:52:23.229Z,100.00
2022-10-18T22:55:08.248Z,100.00
2022-10-18T22:57:54.973Z,100.00
2022-10-18T23:00:39.808Z,100.00
2022-10-18T23:03:24.721Z,100.00
2022-10-18T23:06:24.919Z,100.00
2022-10-18T23:09:10.895Z,100.00
2022-10-18T23:11:56.229Z,100.00
2022-10-18T23:14:41.126Z,100.00
2022-10-18T23:17:25.923Z,100.00
2022-10-18T23:20:10.859Z,100.00
2022-10-18T23:22:55.867Z,100.00
2022-10-18T23:25:40.785Z,100.00
2022-10-18T23:28:25.778Z,100.00
2022-10-18T23:31:14.064Z,100.00
2022-10-18T23:34:01.862Z,100.00
2022-10-18T23:36:46.913Z,100.00
2022-10-18T23:39:31.931Z,100.00
2022-10-18T23:42:16.926Z,100.00
2022-10-18T23:45:02.076Z,100.00
2022-10-18T23:47:47.040Z,100.00
2022-10-18T23:50:31.815Z,100.00
2022-10-18T23:53:19.109Z,100.00
2022-10-18T23:56:09.360Z,100.00
2022-10-18T23:58:56.008Z,100.00
